sensor_id;sensor_type;location;lat;lon;timestamp;P1;durP1;ratioP1;P2;durP2;ratioP2
56239;SDS011;42154;51.992;5.896;2023-11-22T00:01:22;16.48;;;12.55;;
56239;SDS011;42154;51.992;5.896;2023-11-22T00:03:48;19.63;;;12.25;;
56239;SDS011;42154;51.992;5.896;2023-11-22T00:06:15;18.13;;;12.02;;
56239;SDS011;42154;51.992;5.896;2023-11-22T00:08:41;17.35;;;13.40;;
56239;SDS011;42154;51.992;5.896;2023-11-22T00:11:07;16.42;;;12.45;;
56239;SDS011;42154;51.992;5.896;2023-11-22T00:13:32;17.15;;;12.80;;
56239;SDS011;42154;51.992;5.896;2023-11-22T00:15:58;17.77;;;12.13;;
56239;SDS011;42154;51.992;5.896;2023-11-22T00:18:24;18.42;;;13.10;;
56239;SDS011;42154;51.992;5.896;2023-11-22T00:20:51;17.45;;;13.55;;
56239;SDS011;42154;51.992;5.896;2023-11-22T00:23:17;16.90;;;12.27;;
56239;SDS011;42154;51.992;5.896;2023-11-22T00:25:42;18.42;;;12.82;;
56239;SDS011;42154;51.992;5.896;2023-11-22T00:28:08;19.05;;;12.90;;
56239;SDS011;42154;51.992;5.896;2023-11-22T00:30:36;21.52;;;14.52;;
56239;SDS011;42154;51.992;5.896;2023-11-22T00:33:02;19.80;;;14.07;;
56239;SDS011;42154;51.992;5.896;2023-11-22T00:35:28;20.45;;;13.52;;
56239;SDS011;42154;51.992;5.896;2023-11-22T00:37:55;21.45;;;14.30;;
56239;SDS011;42154;51.992;5.896;2023-11-22T00:40:21;19.00;;;13.85;;
56239;SDS011;42154;51.992;5.896;2023-11-22T00:42:46;19.35;;;14.02;;
56239;SDS011;42154;51.992;5.896;2023-11-22T00:45:12;22.55;;;14.13;;
56239;SDS011;42154;51.992;5.896;2023-11-22T00:47:38;19.45;;;13.88;;
56239;SDS011;42154;51.992;5.896;2023-11-22T00:50:04;22.73;;;13.80;;
56239;SDS011;42154;51.992;5.896;2023-11-22T00:52:31;18.70;;;13.63;;
56239;SDS011;42154;51.992;5.896;2023-11-22T00:54:57;18.85;;;12.80;;
56239;SDS011;42154;51.992;5.896;2023-11-22T00:57:23;16.25;;;11.65;;
56239;SDS011;42154;51.992;5.896;2023-11-22T00:59:49;19.70;;;12.98;;
56239;SDS011;42154;51.992;5.896;2023-11-22T01:02:15;18.63;;;12.63;;
56239;SDS011;42154;51.992;5.896;2023-11-22T01:04:41;18.33;;;12.68;;
56239;SDS011;42154;51.992;5.896;2023-11-22T01:07:07;16.88;;;12.35;;
56239;SDS011;42154;51.992;5.896;2023-11-22T01:09:33;18.25;;;12.45;;
56239;SDS011;42154;51.992;5.896;2023-11-22T01:11:59;21.70;;;13.75;;
56239;SDS011;42154;51.992;5.896;2023-11-22T01:14:25;18.70;;;12.77;;
56239;SDS011;42154;51.992;5.896;2023-11-22T01:16:51;16.35;;;11.85;;
56239;SDS011;42154;51.992;5.896;2023-11-22T01:19:17;18.98;;;12.68;;
56239;SDS011;42154;51.992;5.896;2023-11-22T01:21:43;17.27;;;11.98;;
56239;SDS011;42154;51.992;5.896;2023-11-22T01:24:09;18.85;;;12.52;;
56239;SDS011;42154;51.992;5.896;2023-11-22T01:26:36;15.60;;;11.70;;
56239;SDS011;42154;51.992;5.896;2023-11-22T01:29:03;16.30;;;11.25;;
56239;SDS011;42154;51.992;5.896;2023-11-22T01:31:29;14.75;;;10.10;;
56239;SDS011;42154;51.992;5.896;2023-11-22T01:33:55;20.25;;;11.93;;
56239;SDS011;42154;51.992;5.896;2023-11-22T01:36:21;18.10;;;12.55;;
56239;SDS011;42154;51.992;5.896;2023-11-22T01:38:47;16.52;;;11.70;;
56239;SDS011;42154;51.992;5.896;2023-11-22T01:41:13;17.95;;;12.05;;
56239;SDS011;42154;51.992;5.896;2023-11-22T01:43:39;16.92;;;12.10;;
56239;SDS011;42154;51.992;5.896;2023-11-22T01:46:10;14.35;;;10.27;;
56239;SDS011;42154;51.992;5.896;2023-11-22T01:48:48;17.88;;;11.75;;
56239;SDS011;42154;51.992;5.896;2023-11-22T01:51:14;17.95;;;12.40;;
56239;SDS011;42154;51.992;5.896;2023-11-22T01:53:39;15.55;;;11.82;;
56239;SDS011;42154;51.992;5.896;2023-11-22T01:56:06;16.88;;;10.63;;
56239;SDS011;42154;51.992;5.896;2023-11-22T01:58:33;13.98;;;10.02;;
56239;SDS011;42154;51.992;5.896;2023-11-22T02:00:59;14.15;;;10.25;;
56239;SDS011;42154;51.992;5.896;2023-11-22T02:03:27;17.63;;;11.32;;
56239;SDS011;42154;51.992;5.896;2023-11-22T02:05:54;15.95;;;10.00;;
56239;SDS011;42154;51.992;5.896;2023-11-22T02:08:20;18.92;;;12.05;;
56239;SDS011;42154;51.992;5.896;2023-11-22T02:10:45;15.90;;;11.15;;
56239;SDS011;42154;51.992;5.896;2023-11-22T02:13:14;15.45;;;10.07;;
56239;SDS011;42154;51.992;5.896;2023-11-22T02:15:40;13.70;;;9.95;;
56239;SDS011;42154;51.992;5.896;2023-11-22T02:18:06;14.45;;;9.52;;
56239;SDS011;42154;51.992;5.896;2023-11-22T02:20:33;16.50;;;11.25;;
56239;SDS011;42154;51.992;5.896;2023-11-22T02:23:11;16.30;;;10.80;;
56239;SDS011;42154;51.992;5.896;2023-11-22T02:25:37;18.05;;;12.10;;
56239;SDS011;42154;51.992;5.896;2023-11-22T02:28:03;20.92;;;13.38;;
56239;SDS011;42154;51.992;5.896;2023-11-22T02:30:30;19.50;;;12.23;;
56239;SDS011;42154;51.992;5.896;2023-11-22T02:32:56;20.50;;;12.27;;
56239;SDS011;42154;51.992;5.896;2023-11-22T02:35:22;18.38;;;11.30;;
56239;SDS011;42154;51.992;5.896;2023-11-22T02:37:48;15.48;;;10.95;;
56239;SDS011;42154;51.992;5.896;2023-11-22T02:42:50;19.02;;;13.23;;
56239;SDS011;42154;51.992;5.896;2023-11-22T02:45:18;17.95;;;12.13;;
56239;SDS011;42154;51.992;5.896;2023-11-22T02:47:48;18.40;;;11.43;;
56239;SDS011;42154;51.992;5.896;2023-11-22T02:50:14;19.27;;;12.73;;
56239;SDS011;42154;51.992;5.896;2023-11-22T02:52:41;20.23;;;13.15;;
56239;SDS011;42154;51.992;5.896;2023-11-22T02:55:07;19.75;;;12.73;;
56239;SDS011;42154;51.992;5.896;2023-11-22T02:57:37;16.52;;;11.30;;
56239;SDS011;42154;51.992;5.896;2023-11-22T03:00:05;22.13;;;12.63;;
56239;SDS011;42154;51.992;5.896;2023-11-22T03:02:33;16.92;;;11.23;;
56239;SDS011;42154;51.992;5.896;2023-11-22T03:04:59;18.67;;;11.70;;
56239;SDS011;42154;51.992;5.896;2023-11-22T03:07:25;17.30;;;12.38;;
56239;SDS011;42154;51.992;5.896;2023-11-22T03:09:51;19.60;;;12.60;;
56239;SDS011;42154;51.992;5.896;2023-11-22T03:12:18;18.67;;;12.15;;
56239;SDS011;42154;51.992;5.896;2023-11-22T03:14:45;21.85;;;13.30;;
56239;SDS011;42154;51.992;5.896;2023-11-22T03:17:11;16.52;;;10.93;;
56239;SDS011;42154;51.992;5.896;2023-11-22T03:19:38;19.52;;;11.82;;
56239;SDS011;42154;51.992;5.896;2023-11-22T03:22:05;19.23;;;12.30;;
56239;SDS011;42154;51.992;5.896;2023-11-22T03:24:33;22.42;;;14.02;;
56239;SDS011;42154;51.992;5.896;2023-11-22T03:27:05;20.38;;;12.35;;
56239;SDS011;42154;51.992;5.896;2023-11-22T03:29:31;20.00;;;12.75;;
56239;SDS011;42154;51.992;5.896;2023-11-22T03:31:57;17.30;;;11.45;;
56239;SDS011;42154;51.992;5.896;2023-11-22T03:34:23;17.45;;;11.70;;
56239;SDS011;42154;51.992;5.896;2023-11-22T03:36:49;16.88;;;11.38;;
56239;SDS011;42154;51.992;5.896;2023-11-22T03:39:15;17.10;;;12.35;;
56239;SDS011;42154;51.992;5.896;2023-11-22T03:41:41;17.13;;;11.32;;
56239;SDS011;42154;51.992;5.896;2023-11-22T03:44:07;16.25;;;10.93;;
56239;SDS011;42154;51.992;5.896;2023-11-22T03:46:37;14.80;;;9.93;;
56239;SDS011;42154;51.992;5.896;2023-11-22T03:49:04;16.83;;;11.38;;
56239;SDS011;42154;51.992;5.896;2023-11-22T03:51:32;14.07;;;10.50;;
56239;SDS011;42154;51.992;5.896;2023-11-22T03:53:58;18.13;;;11.90;;
56239;SDS011;42154;51.992;5.896;2023-11-22T03:56:24;16.05;;;10.93;;
56239;SDS011;42154;51.992;5.896;2023-11-22T03:58:51;18.35;;;11.95;;
56239;SDS011;42154;51.992;5.896;2023-11-22T04:01:17;18.65;;;12.13;;
56239;SDS011;42154;51.992;5.896;2023-11-22T04:03:43;19.20;;;11.48;;
56239;SDS011;42154;51.992;5.896;2023-11-22T04:06:09;18.65;;;11.43;;
56239;SDS011;42154;51.992;5.896;2023-11-22T04:08:35;17.67;;;11.52;;
56239;SDS011;42154;51.992;5.896;2023-11-22T04:11:03;16.90;;;11.43;;
56239;SDS011;42154;51.992;5.896;2023-11-22T04:13:30;20.60;;;12.15;;
56239;SDS011;42154;51.992;5.896;2023-11-22T04:15:56;15.55;;;10.95;;
56239;SDS011;42154;51.992;5.896;2023-11-22T04:18:22;19.77;;;11.93;;
56239;SDS011;42154;51.992;5.896;2023-11-22T04:20:49;18.00;;;11.98;;
56239;SDS011;42154;51.992;5.896;2023-11-22T04:23:15;17.95;;;11.82;;
56239;SDS011;42154;51.992;5.896;2023-11-22T04:25:41;18.42;;;11.68;;
56239;SDS011;42154;51.992;5.896;2023-11-22T04:28:07;18.38;;;11.05;;
56239;SDS011;42154;51.992;5.896;2023-11-22T04:30:36;15.57;;;10.43;;
56239;SDS011;42154;51.992;5.896;2023-11-22T04:33:01;20.27;;;11.85;;
56239;SDS011;42154;51.992;5.896;2023-11-22T04:35:27;18.30;;;11.30;;
56239;SDS011;42154;51.992;5.896;2023-11-22T04:37:53;15.38;;;10.55;;
56239;SDS011;42154;51.992;5.896;2023-11-22T04:40:23;18.83;;;11.60;;
56239;SDS011;42154;51.992;5.896;2023-11-22T04:42:49;17.92;;;11.52;;
56239;SDS011;42154;51.992;5.896;2023-11-22T04:45:15;17.23;;;11.63;;
56239;SDS011;42154;51.992;5.896;2023-11-22T04:47:40;16.38;;;10.68;;
56239;SDS011;42154;51.992;5.896;2023-11-22T04:50:06;16.70;;;10.75;;
56239;SDS011;42154;51.992;5.896;2023-11-22T04:52:32;16.73;;;10.77;;
56239;SDS011;42154;51.992;5.896;2023-11-22T04:54:58;16.42;;;11.05;;
56239;SDS011;42154;51.992;5.896;2023-11-22T04:57:23;17.65;;;11.68;;
56239;SDS011;42154;51.992;5.896;2023-11-22T04:59:49;16.23;;;10.82;;
56239;SDS011;42154;51.992;5.896;2023-11-22T05:02:15;18.02;;;11.65;;
56239;SDS011;42154;51.992;5.896;2023-11-22T05:04:41;18.73;;;11.30;;
56239;SDS011;42154;51.992;5.896;2023-11-22T05:07:07;17.10;;;11.23;;
56239;SDS011;42154;51.992;5.896;2023-11-22T05:09:34;17.17;;;10.65;;
56239;SDS011;42154;51.992;5.896;2023-11-22T05:11:59;17.23;;;10.95;;
56239;SDS011;42154;51.992;5.896;2023-11-22T05:14:25;17.60;;;10.88;;
56239;SDS011;42154;51.992;5.896;2023-11-22T05:16:51;16.38;;;10.55;;
56239;SDS011;42154;51.992;5.896;2023-11-22T05:19:17;17.52;;;10.80;;
56239;SDS011;42154;51.992;5.896;2023-11-22T05:21:44;19.70;;;12.00;;
56239;SDS011;42154;51.992;5.896;2023-11-22T05:24:09;16.77;;;11.02;;
56239;SDS011;42154;51.992;5.896;2023-11-22T05:26:35;18.63;;;10.82;;
56239;SDS011;42154;51.992;5.896;2023-11-22T05:29:01;22.65;;;11.57;;
56239;SDS011;42154;51.992;5.896;2023-11-22T05:31:29;16.30;;;10.85;;
56239;SDS011;42154;51.992;5.896;2023-11-22T05:33:55;16.45;;;10.88;;
56239;SDS011;42154;51.992;5.896;2023-11-22T05:36:21;17.13;;;10.98;;
56239;SDS011;42154;51.992;5.896;2023-11-22T05:38:47;16.52;;;11.23;;
56239;SDS011;42154;51.992;5.896;2023-11-22T05:41:12;16.77;;;10.40;;
56239;SDS011;42154;51.992;5.896;2023-11-22T05:43:38;17.20;;;10.63;;
56239;SDS011;42154;51.992;5.896;2023-11-22T05:46:04;16.35;;;10.75;;
56239;SDS011;42154;51.992;5.896;2023-11-22T05:48:30;16.85;;;10.85;;
56239;SDS011;42154;51.992;5.896;2023-11-22T05:50:56;16.58;;;10.93;;
56239;SDS011;42154;51.992;5.896;2023-11-22T05:53:21;16.52;;;10.52;;
56239;SDS011;42154;51.992;5.896;2023-11-22T05:55:47;15.98;;;10.68;;
56239;SDS011;42154;51.992;5.896;2023-11-22T05:58:14;17.02;;;10.85;;
56239;SDS011;42154;51.992;5.896;2023-11-22T06:00:44;16.33;;;10.27;;
56239;SDS011;42154;51.992;5.896;2023-11-22T06:03:10;16.98;;;11.07;;
56239;SDS011;42154;51.992;5.896;2023-11-22T06:05:38;17.40;;;10.95;;
56239;SDS011;42154;51.992;5.896;2023-11-22T06:08:06;16.40;;;10.30;;
56239;SDS011;42154;51.992;5.896;2023-11-22T06:10:35;16.45;;;10.32;;
56239;SDS011;42154;51.992;5.896;2023-11-22T06:13:03;18.85;;;10.90;;
56239;SDS011;42154;51.992;5.896;2023-11-22T06:15:28;16.85;;;10.35;;
56239;SDS011;42154;51.992;5.896;2023-11-22T06:17:54;16.20;;;10.82;;
56239;SDS011;42154;51.992;5.896;2023-11-22T06:20:20;16.42;;;9.95;;
56239;SDS011;42154;51.992;5.896;2023-11-22T06:22:46;16.08;;;10.85;;
56239;SDS011;42154;51.992;5.896;2023-11-22T06:25:12;14.10;;;9.95;;
56239;SDS011;42154;51.992;5.896;2023-11-22T06:27:38;14.48;;;10.02;;
56239;SDS011;42154;51.992;5.896;2023-11-22T06:30:05;16.27;;;10.77;;
56239;SDS011;42154;51.992;5.896;2023-11-22T06:32:31;16.70;;;10.02;;
56239;SDS011;42154;51.992;5.896;2023-11-22T06:34:59;15.77;;;9.57;;
56239;SDS011;42154;51.992;5.896;2023-11-22T06:37:24;17.90;;;11.55;;
56239;SDS011;42154;51.992;5.896;2023-11-22T06:39:51;18.45;;;11.30;;
56239;SDS011;42154;51.992;5.896;2023-11-22T06:42:17;16.33;;;10.52;;
56239;SDS011;42154;51.992;5.896;2023-11-22T06:44:44;19.23;;;11.30;;
56239;SDS011;42154;51.992;5.896;2023-11-22T06:47:13;18.63;;;12.73;;
56239;SDS011;42154;51.992;5.896;2023-11-22T06:49:39;17.20;;;11.18;;
56239;SDS011;42154;51.992;5.896;2023-11-22T06:52:04;18.38;;;11.88;;
56239;SDS011;42154;51.992;5.896;2023-11-22T06:54:30;19.20;;;11.68;;
56239;SDS011;42154;51.992;5.896;2023-11-22T06:56:56;20.85;;;12.77;;
56239;SDS011;42154;51.992;5.896;2023-11-22T06:59:22;19.20;;;12.30;;
56239;SDS011;42154;51.992;5.896;2023-11-22T07:01:48;16.38;;;11.13;;
56239;SDS011;42154;51.992;5.896;2023-11-22T07:04:13;18.33;;;11.68;;
56239;SDS011;42154;51.992;5.896;2023-11-22T07:06:39;16.55;;;11.18;;
56239;SDS011;42154;51.992;5.896;2023-11-22T07:09:05;15.48;;;10.68;;
56239;SDS011;42154;51.992;5.896;2023-11-22T07:11:34;19.17;;;11.02;;
56239;SDS011;42154;51.992;5.896;2023-11-22T07:14:02;16.17;;;10.77;;
56239;SDS011;42154;51.992;5.896;2023-11-22T07:16:29;19.85;;;12.02;;
56239;SDS011;42154;51.992;5.896;2023-11-22T07:18:56;19.67;;;12.25;;
56239;SDS011;42154;51.992;5.896;2023-11-22T07:21:22;19.02;;;11.40;;
56239;SDS011;42154;51.992;5.896;2023-11-22T07:23:48;16.73;;;11.40;;
56239;SDS011;42154;51.992;5.896;2023-11-22T07:26:14;17.98;;;11.43;;
56239;SDS011;42154;51.992;5.896;2023-11-22T07:28:40;18.20;;;11.27;;
56239;SDS011;42154;51.992;5.896;2023-11-22T07:31:09;17.27;;;11.23;;
56239;SDS011;42154;51.992;5.896;2023-11-22T07:33:36;17.80;;;11.65;;
56239;SDS011;42154;51.992;5.896;2023-11-22T07:36:04;19.25;;;11.45;;
56239;SDS011;42154;51.992;5.896;2023-11-22T07:38:30;16.98;;;11.35;;
56239;SDS011;42154;51.992;5.896;2023-11-22T07:40:57;15.98;;;10.98;;
56239;SDS011;42154;51.992;5.896;2023-11-22T07:43:23;19.02;;;11.20;;
56239;SDS011;42154;51.992;5.896;2023-11-22T07:45:49;15.55;;;10.13;;
56239;SDS011;42154;51.992;5.896;2023-11-22T07:48:16;16.08;;;11.20;;
56239;SDS011;42154;51.992;5.896;2023-11-22T07:50:42;17.88;;;11.32;;
56239;SDS011;42154;51.992;5.896;2023-11-22T07:53:09;16.70;;;10.45;;
56239;SDS011;42154;51.992;5.896;2023-11-22T07:55:37;17.23;;;11.30;;
56239;SDS011;42154;51.992;5.896;2023-11-22T07:58:03;16.58;;;11.00;;
56239;SDS011;42154;51.992;5.896;2023-11-22T08:00:32;13.40;;;9.35;;
56239;SDS011;42154;51.992;5.896;2023-11-22T08:02:59;15.98;;;10.23;;
56239;SDS011;42154;51.992;5.896;2023-11-22T08:05:31;14.18;;;9.85;;
56239;SDS011;42154;51.992;5.896;2023-11-22T08:08:02;15.50;;;10.80;;
56239;SDS011;42154;51.992;5.896;2023-11-22T08:10:33;17.00;;;11.20;;
56239;SDS011;42154;51.992;5.896;2023-11-22T08:13:02;16.90;;;11.75;;
56239;SDS011;42154;51.992;5.896;2023-11-22T08:15:29;16.15;;;11.07;;
56239;SDS011;42154;51.992;5.896;2023-11-22T08:17:57;17.95;;;10.70;;
56239;SDS011;42154;51.992;5.896;2023-11-22T08:20:23;14.82;;;10.57;;
56239;SDS011;42154;51.992;5.896;2023-11-22T08:22:50;15.88;;;10.23;;
56239;SDS011;42154;51.992;5.896;2023-11-22T08:25:16;15.32;;;10.65;;
56239;SDS011;42154;51.992;5.896;2023-11-22T08:27:42;15.23;;;10.30;;
56239;SDS011;42154;51.992;5.896;2023-11-22T08:30:08;14.80;;;9.68;;
56239;SDS011;42154;51.992;5.896;2023-11-22T08:32:39;18.00;;;11.70;;
56239;SDS011;42154;51.992;5.896;2023-11-22T08:35:06;15.38;;;10.85;;
56239;SDS011;42154;51.992;5.896;2023-11-22T08:37:33;18.45;;;11.50;;
56239;SDS011;42154;51.992;5.896;2023-11-22T08:40:01;19.13;;;12.77;;
56239;SDS011;42154;51.992;5.896;2023-11-22T08:42:27;19.25;;;12.40;;
56239;SDS011;42154;51.992;5.896;2023-11-22T08:44:53;17.60;;;11.85;;
56239;SDS011;42154;51.992;5.896;2023-11-22T08:47:19;17.83;;;11.77;;
56239;SDS011;42154;51.992;5.896;2023-11-22T08:49:45;16.60;;;11.80;;
56239;SDS011;42154;51.992;5.896;2023-11-22T08:52:13;16.75;;;11.35;;
56239;SDS011;42154;51.992;5.896;2023-11-22T08:54:39;19.98;;;12.07;;
56239;SDS011;42154;51.992;5.896;2023-11-22T08:57:05;15.98;;;10.90;;
56239;SDS011;42154;51.992;5.896;2023-11-22T08:59:31;21.02;;;13.05;;
56239;SDS011;42154;51.992;5.896;2023-11-22T09:02:03;20.17;;;12.57;;
56239;SDS011;42154;51.992;5.896;2023-11-22T09:04:29;18.63;;;12.23;;
56239;SDS011;42154;51.992;5.896;2023-11-22T09:06:56;19.55;;;13.40;;
56239;SDS011;42154;51.992;5.896;2023-11-22T09:09:23;18.42;;;12.45;;
56239;SDS011;42154;51.992;5.896;2023-11-22T09:11:56;18.98;;;13.07;;
56239;SDS011;42154;51.992;5.896;2023-11-22T09:14:22;19.05;;;13.20;;
56239;SDS011;42154;51.992;5.896;2023-11-22T09:16:49;19.15;;;13.68;;
56239;SDS011;42154;51.992;5.896;2023-11-22T09:19:20;19.67;;;12.75;;
56239;SDS011;42154;51.992;5.896;2023-11-22T09:21:46;19.92;;;12.90;;
56239;SDS011;42154;51.992;5.896;2023-11-22T09:24:12;22.00;;;14.43;;
56239;SDS011;42154;51.992;5.896;2023-11-22T09:26:38;19.73;;;12.98;;
56239;SDS011;42154;51.992;5.896;2023-11-22T09:29:04;21.10;;;13.75;;
56239;SDS011;42154;51.992;5.896;2023-11-22T09:31:30;21.50;;;14.23;;
56239;SDS011;42154;51.992;5.896;2023-11-22T09:33:56;19.10;;;13.70;;
56239;SDS011;42154;51.992;5.896;2023-11-22T09:36:25;18.75;;;13.43;;
56239;SDS011;42154;51.992;5.896;2023-11-22T09:38:52;18.17;;;13.18;;
56239;SDS011;42154;51.992;5.896;2023-11-22T09:41:18;18.90;;;13.63;;
56239;SDS011;42154;51.992;5.896;2023-11-22T09:43:44;19.15;;;13.52;;
56239;SDS011;42154;51.992;5.896;2023-11-22T09:46:15;20.90;;;14.02;;
56239;SDS011;42154;51.992;5.896;2023-11-22T09:48:45;22.00;;;14.77;;
56239;SDS011;42154;51.992;5.896;2023-11-22T09:51:26;21.65;;;14.55;;
56239;SDS011;42154;51.992;5.896;2023-11-22T09:54:00;17.80;;;12.98;;
56239;SDS011;42154;51.992;5.896;2023-11-22T09:56:32;19.17;;;13.90;;
56239;SDS011;42154;51.992;5.896;2023-11-22T09:59:01;18.42;;;12.95;;
56239;SDS011;42154;51.992;5.896;2023-11-22T10:01:28;17.83;;;12.77;;
56239;SDS011;42154;51.992;5.896;2023-11-22T10:03:56;20.77;;;13.75;;
56239;SDS011;42154;51.992;5.896;2023-11-22T10:06:23;20.77;;;12.68;;
56239;SDS011;42154;51.992;5.896;2023-11-22T10:08:49;20.73;;;13.55;;
56239;SDS011;42154;51.992;5.896;2023-11-22T10:11:16;19.08;;;13.63;;
56239;SDS011;42154;51.992;5.896;2023-11-22T10:13:43;20.67;;;14.10;;
56239;SDS011;42154;51.992;5.896;2023-11-22T10:16:12;20.35;;;13.60;;
56239;SDS011;42154;51.992;5.896;2023-11-22T10:18:44;19.33;;;13.18;;
56239;SDS011;42154;51.992;5.896;2023-11-22T10:21:21;18.92;;;13.27;;
56239;SDS011;42154;51.992;5.896;2023-11-22T10:23:49;17.60;;;13.13;;
56239;SDS011;42154;51.992;5.896;2023-11-22T10:26:19;19.67;;;13.68;;
56239;SDS011;42154;51.992;5.896;2023-11-22T10:28:45;19.95;;;13.23;;
56239;SDS011;42154;51.992;5.896;2023-11-22T10:31:11;20.15;;;13.18;;
56239;SDS011;42154;51.992;5.896;2023-11-22T10:33:41;19.95;;;13.27;;
56239;SDS011;42154;51.992;5.896;2023-11-22T10:36:07;20.25;;;13.55;;
56239;SDS011;42154;51.992;5.896;2023-11-22T10:38:34;20.73;;;13.52;;
56239;SDS011;42154;51.992;5.896;2023-11-22T10:41:04;19.95;;;13.57;;
56239;SDS011;42154;51.992;5.896;2023-11-22T10:43:30;15.82;;;11.77;;
56239;SDS011;42154;51.992;5.896;2023-11-22T10:46:01;19.85;;;12.48;;
56239;SDS011;42154;51.992;5.896;2023-11-22T10:48:28;20.00;;;14.13;;
56239;SDS011;42154;51.992;5.896;2023-11-22T10:50:55;17.35;;;12.45;;
56239;SDS011;42154;51.992;5.896;2023-11-22T10:53:24;18.20;;;12.70;;
56239;SDS011;42154;51.992;5.896;2023-11-22T10:56:11;19.75;;;13.68;;
56239;SDS011;42154;51.992;5.896;2023-11-22T10:58:47;18.83;;;12.57;;
56239;SDS011;42154;51.992;5.896;2023-11-22T11:01:19;19.55;;;13.25;;
56239;SDS011;42154;51.992;5.896;2023-11-22T11:03:57;19.77;;;13.63;;
56239;SDS011;42154;51.992;5.896;2023-11-22T11:06:32;21.50;;;13.80;;
56239;SDS011;42154;51.992;5.896;2023-11-22T11:09:00;20.45;;;13.27;;
56239;SDS011;42154;51.992;5.896;2023-11-22T11:11:30;17.10;;;11.57;;
56239;SDS011;42154;51.992;5.896;2023-11-22T11:14:00;15.23;;;10.93;;
56239;SDS011;42154;51.992;5.896;2023-11-22T11:16:29;15.93;;;11.77;;
56239;SDS011;42154;51.992;5.896;2023-11-22T11:18:56;17.20;;;11.20;;
56239;SDS011;42154;51.992;5.896;2023-11-22T11:21:22;17.83;;;12.48;;
56239;SDS011;42154;51.992;5.896;2023-11-22T11:23:51;18.42;;;12.32;;
56239;SDS011;42154;51.992;5.896;2023-11-22T11:26:20;17.15;;;11.80;;
56239;SDS011;42154;51.992;5.896;2023-11-22T11:28:49;18.13;;;12.18;;
56239;SDS011;42154;51.992;5.896;2023-11-22T11:31:16;16.90;;;11.63;;
56239;SDS011;42154;51.992;5.896;2023-11-22T11:38:54;16.45;;;12.07;;
56239;SDS011;42154;51.992;5.896;2023-11-22T11:41:54;15.73;;;11.70;;
56239;SDS011;42154;51.992;5.896;2023-11-22T11:44:12;16.90;;;11.73;;
56239;SDS011;42154;51.992;5.896;2023-11-22T11:46:39;16.73;;;12.00;;
56239;SDS011;42154;51.992;5.896;2023-11-22T11:49:08;15.45;;;11.65;;
56239;SDS011;42154;51.992;5.896;2023-11-22T11:51:37;18.15;;;12.18;;
56239;SDS011;42154;51.992;5.896;2023-11-22T11:54:03;18.70;;;13.35;;
56239;SDS011;42154;51.992;5.896;2023-11-22T11:56:30;18.65;;;13.02;;
56239;SDS011;42154;51.992;5.896;2023-11-22T11:58:57;16.85;;;13.02;;
56239;SDS011;42154;51.992;5.896;2023-11-22T12:01:27;19.45;;;13.48;;
56239;SDS011;42154;51.992;5.896;2023-11-22T12:03:57;16.88;;;11.82;;
56239;SDS011;42154;51.992;5.896;2023-11-22T12:06:25;17.40;;;10.93;;
56239;SDS011;42154;51.992;5.896;2023-11-22T12:08:51;16.63;;;12.52;;
56239;SDS011;42154;51.992;5.896;2023-11-22T12:11:18;18.83;;;13.68;;
56239;SDS011;42154;51.992;5.896;2023-11-22T12:13:44;19.45;;;13.95;;
56239;SDS011;42154;51.992;5.896;2023-11-22T12:16:15;18.40;;;13.38;;
56239;SDS011;42154;51.992;5.896;2023-11-22T12:18:46;17.20;;;12.57;;
56239;SDS011;42154;51.992;5.896;2023-11-22T12:21:13;17.80;;;12.07;;
56239;SDS011;42154;51.992;5.896;2023-11-22T12:23:40;17.15;;;11.95;;
56239;SDS011;42154;51.992;5.896;2023-11-22T12:26:14;19.27;;;13.77;;
56239;SDS011;42154;51.992;5.896;2023-11-22T12:28:40;22.15;;;14.23;;
56239;SDS011;42154;51.992;5.896;2023-11-22T12:31:08;22.00;;;14.13;;
56239;SDS011;42154;51.992;5.896;2023-11-22T12:33:37;23.15;;;15.82;;
56239;SDS011;42154;51.992;5.896;2023-11-22T12:36:05;25.80;;;17.02;;
56239;SDS011;42154;51.992;5.896;2023-11-22T12:38:32;25.17;;;16.27;;
56239;SDS011;42154;51.992;5.896;2023-11-22T12:40:59;26.33;;;17.15;;
56239;SDS011;42154;51.992;5.896;2023-11-22T12:43:28;24.98;;;17.20;;
56239;SDS011;42154;51.992;5.896;2023-11-22T12:46:05;23.60;;;15.93;;
56239;SDS011;42154;51.992;5.896;2023-11-22T12:48:38;25.00;;;17.17;;
56239;SDS011;42154;51.992;5.896;2023-11-22T12:51:14;26.80;;;15.77;;
56239;SDS011;42154;51.992;5.896;2023-11-22T12:53:42;22.65;;;14.55;;
56239;SDS011;42154;51.992;5.896;2023-11-22T12:56:10;23.33;;;15.02;;
56239;SDS011;42154;51.992;5.896;2023-11-22T12:58:37;22.50;;;15.13;;
56239;SDS011;42154;51.992;5.896;2023-11-22T13:01:02;23.65;;;15.70;;
56239;SDS011;42154;51.992;5.896;2023-11-22T13:03:28;30.48;;;17.65;;
56239;SDS011;42154;51.992;5.896;2023-11-22T13:05:54;23.98;;;15.63;;
56239;SDS011;42154;51.992;5.896;2023-11-22T13:08:21;23.45;;;15.07;;
56239;SDS011;42154;51.992;5.896;2023-11-22T13:10:54;21.95;;;14.48;;
56239;SDS011;42154;51.992;5.896;2023-11-22T13:13:20;25.00;;;15.23;;
56239;SDS011;42154;51.992;5.896;2023-11-22T13:15:47;26.50;;;16.17;;
56239;SDS011;42154;51.992;5.896;2023-11-22T13:18:14;23.35;;;14.73;;
56239;SDS011;42154;51.992;5.896;2023-11-22T13:20:41;24.83;;;15.57;;
56239;SDS011;42154;51.992;5.896;2023-11-22T13:23:08;23.50;;;15.20;;
56239;SDS011;42154;51.992;5.896;2023-11-22T13:25:34;21.38;;;14.73;;
56239;SDS011;42154;51.992;5.896;2023-11-22T13:28:00;23.38;;;15.15;;
56239;SDS011;42154;51.992;5.896;2023-11-22T13:30:27;26.92;;;16.30;;
56239;SDS011;42154;51.992;5.896;2023-11-22T13:32:54;24.73;;;15.48;;
56239;SDS011;42154;51.992;5.896;2023-11-22T13:35:27;23.60;;;15.15;;
56239;SDS011;42154;51.992;5.896;2023-11-22T13:37:56;24.60;;;15.30;;
56239;SDS011;42154;51.992;5.896;2023-11-22T13:40:23;25.27;;;16.35;;
56239;SDS011;42154;51.992;5.896;2023-11-22T13:42:51;20.00;;;13.25;;
56239;SDS011;42154;51.992;5.896;2023-11-22T13:45:20;23.10;;;14.88;;
56239;SDS011;42154;51.992;5.896;2023-11-22T13:47:50;26.35;;;16.35;;
56239;SDS011;42154;51.992;5.896;2023-11-22T13:50:20;26.77;;;16.55;;
56239;SDS011;42154;51.992;5.896;2023-11-22T13:52:52;28.70;;;17.40;;
56239;SDS011;42154;51.992;5.896;2023-11-22T13:55:18;27.08;;;17.30;;
56239;SDS011;42154;51.992;5.896;2023-11-22T13:57:54;30.30;;;18.92;;
56239;SDS011;42154;51.992;5.896;2023-11-22T14:00:25;29.80;;;17.98;;
56239;SDS011;42154;51.992;5.896;2023-11-22T14:02:57;32.25;;;17.83;;
56239;SDS011;42154;51.992;5.896;2023-11-22T14:05:29;27.83;;;17.67;;
56239;SDS011;42154;51.992;5.896;2023-11-22T14:07:55;30.85;;;18.52;;
56239;SDS011;42154;51.992;5.896;2023-11-22T14:10:21;31.33;;;18.10;;
56239;SDS011;42154;51.992;5.896;2023-11-22T14:12:50;31.73;;;18.52;;
56239;SDS011;42154;51.992;5.896;2023-11-22T14:15:17;32.95;;;19.25;;
56239;SDS011;42154;51.992;5.896;2023-11-22T14:17:44;34.13;;;19.63;;
56239;SDS011;42154;51.992;5.896;2023-11-22T14:20:14;38.63;;;22.17;;
56239;SDS011;42154;51.992;5.896;2023-11-22T14:22:40;38.97;;;22.38;;
56239;SDS011;42154;51.992;5.896;2023-11-22T14:25:07;38.30;;;21.88;;
56239;SDS011;42154;51.992;5.896;2023-11-22T14:27:38;28.73;;;16.65;;
56239;SDS011;42154;51.992;5.896;2023-11-22T14:30:05;38.95;;;21.65;;